Terminal Aerodrome Forecast
Issued by NWS

Home | Current Version | Previous Version | Text Only | Print | Product List | Glossary On
Versions: 1 2 3 4 5 6 7 8 9 10 11 12 13 14 15 16 17
000
FTUS46 KMFR 172300
TAFLMT
TAF
KLMT 172339Z 1800/1824 19019G32KT P6SM FEW100 SCT200
     FM180100 19015G27KT P6SM SCT100 SCT200
     FM180300 17011KT P6SM SCT080 BKN100 OVC200
     FM181000 16007KT P6SM VCSH SCT050 BKN080 BKN200
     FM182000 22010KT P6SM SCT050 SCT080 BKN200=

USA.gov is the U.S. government's official web portal to all federal, state and local government web resources and services.